sensor_id;sensor_type;location;lat;lon;timestamp;temperature;humidity
70762;DHT22;58360;0.000;0.000;2023-07-13T00:01:35;18.70;79.00
70762;DHT22;58360;0.000;0.000;2023-07-13T00:04:01;18.60;79.90
70762;DHT22;58360;0.000;0.000;2023-07-13T00:06:27;18.60;79.60
70762;DHT22;58360;0.000;0.000;2023-07-13T00:08:58;18.60;80.40
70762;DHT22;58360;0.000;0.000;2023-07-13T00:11:27;18.80;79.20
70762;DHT22;58360;0.000;0.000;2023-07-13T00:13:53;18.70;80.60
70762;DHT22;58360;0.000;0.000;2023-07-13T00:16:19;18.60;80.60
70762;DHT22;58360;0.000;0.000;2023-07-13T00:18:45;18.50;80.90
70762;DHT22;58360;0.000;0.000;2023-07-13T00:21:11;18.50;81.10
70762;DHT22;58360;0.000;0.000;2023-07-13T00:23:40;18.50;81.40
70762;DHT22;58360;0.000;0.000;2023-07-13T00:26:08;18.50;81.60
70762;DHT22;58360;0.000;0.000;2023-07-13T00:28:34;18.50;81.50
70762;DHT22;58360;0.000;0.000;2023-07-13T00:31:01;18.40;82.60
70762;DHT22;58360;0.000;0.000;2023-07-13T00:33:28;18.40;82.30
70762;DHT22;58360;0.000;0.000;2023-07-13T00:35:57;18.30;83.50
70762;DHT22;58360;0.000;0.000;2023-07-13T00:38:23;18.40;83.10
70762;DHT22;58360;0.000;0.000;2023-07-13T00:40:49;18.40;83.00
70762;DHT22;58360;0.000;0.000;2023-07-13T00:43:20;18.20;83.90
70762;DHT22;58360;0.000;0.000;2023-07-13T00:48:15;18.20;84.70
70762;DHT22;58360;0.000;0.000;2023-07-13T00:50:44;18.30;84.00
70762;DHT22;58360;0.000;0.000;2023-07-13T00:53:11;18.30;84.00
70762;DHT22;58360;0.000;0.000;2023-07-13T00:55:39;18.30;84.20
70762;DHT22;58360;0.000;0.000;2023-07-13T00:58:05;18.20;85.20
70762;DHT22;58360;0.000;0.000;2023-07-13T01:00:36;18.20;85.20
70762;DHT22;58360;0.000;0.000;2023-07-13T01:03:03;18.10;86.00
70762;DHT22;58360;0.000;0.000;2023-07-13T01:05:31;18.00;86.60
70762;DHT22;58360;0.000;0.000;2023-07-13T01:07:59;18.10;86.00
70762;DHT22;58360;0.000;0.000;2023-07-13T01:10:26;18.20;85.70
70762;DHT22;58360;0.000;0.000;2023-07-13T01:12:52;18.10;86.90
70762;DHT22;58360;0.000;0.000;2023-07-13T01:15:38;18.10;86.30
70762;DHT22;58360;0.000;0.000;2023-07-13T01:18:07;18.10;86.40
70762;DHT22;58360;0.000;0.000;2023-07-13T01:20:33;18.10;86.70
70762;DHT22;58360;0.000;0.000;2023-07-13T01:23:06;18.20;86.50
70762;DHT22;58360;0.000;0.000;2023-07-13T01:25:34;18.10;87.20
70762;DHT22;58360;0.000;0.000;2023-07-13T01:28:01;18.00;87.50
70762;DHT22;58360;0.000;0.000;2023-07-13T01:30:27;18.00;87.50
70762;DHT22;58360;0.000;0.000;2023-07-13T01:32:52;18.10;87.40
70762;DHT22;58360;0.000;0.000;2023-07-13T01:35:18;18.00;88.10
70762;DHT22;58360;0.000;0.000;2023-07-13T01:37:43;17.80;89.70
70762;DHT22;58360;0.000;0.000;2023-07-13T01:40:11;17.60;90.00
70762;DHT22;58360;0.000;0.000;2023-07-13T01:42:37;17.50;90.20
70762;DHT22;58360;0.000;0.000;2023-07-13T01:45:04;17.40;90.40
70762;DHT22;58360;0.000;0.000;2023-07-13T01:47:30;17.50;90.20
70762;DHT22;58360;0.000;0.000;2023-07-13T01:49:57;17.50;90.40
70762;DHT22;58360;0.000;0.000;2023-07-13T01:52:22;17.50;90.50
70762;DHT22;58360;0.000;0.000;2023-07-13T01:54:48;17.40;90.50
70762;DHT22;58360;0.000;0.000;2023-07-13T01:57:14;17.50;90.30
70762;DHT22;58360;0.000;0.000;2023-07-13T01:59:40;17.50;90.10
70762;DHT22;58360;0.000;0.000;2023-07-13T02:02:06;17.50;90.40
70762;DHT22;58360;0.000;0.000;2023-07-13T02:04:32;17.60;90.00
70762;DHT22;58360;0.000;0.000;2023-07-13T02:06:57;17.50;90.30
70762;DHT22;58360;0.000;0.000;2023-07-13T02:09:23;17.40;90.60
70762;DHT22;58360;0.000;0.000;2023-07-13T02:11:49;17.50;90.30
70762;DHT22;58360;0.000;0.000;2023-07-13T02:14:15;17.60;90.10
70762;DHT22;58360;0.000;0.000;2023-07-13T02:16:41;17.70;90.00
70762;DHT22;58360;0.000;0.000;2023-07-13T02:19:10;17.80;90.00
70762;DHT22;58360;0.000;0.000;2023-07-13T02:21:36;17.70;90.10
70762;DHT22;58360;0.000;0.000;2023-07-13T02:24:02;17.70;90.40
70762;DHT22;58360;0.000;0.000;2023-07-13T02:26:27;17.70;90.30
70762;DHT22;58360;0.000;0.000;2023-07-13T02:28:53;17.70;90.10
70762;DHT22;58360;0.000;0.000;2023-07-13T02:31:19;17.70;90.20
70762;DHT22;58360;0.000;0.000;2023-07-13T02:33:45;17.70;90.30
70762;DHT22;58360;0.000;0.000;2023-07-13T02:36:11;17.70;90.80
70762;DHT22;58360;0.000;0.000;2023-07-13T02:38:37;17.80;90.30
70762;DHT22;58360;0.000;0.000;2023-07-13T02:41:05;18.10;89.20
70762;DHT22;58360;0.000;0.000;2023-07-13T02:43:31;18.30;88.50
70762;DHT22;58360;0.000;0.000;2023-07-13T02:45:58;18.20;88.90
70762;DHT22;58360;0.000;0.000;2023-07-13T02:48:29;18.10;89.50
70762;DHT22;58360;0.000;0.000;2023-07-13T02:50:55;18.20;88.80
70762;DHT22;58360;0.000;0.000;2023-07-13T02:53:21;18.30;88.10
70762;DHT22;58360;0.000;0.000;2023-07-13T02:55:46;18.10;89.10
70762;DHT22;58360;0.000;0.000;2023-07-13T02:58:13;18.20;88.70
70762;DHT22;58360;0.000;0.000;2023-07-13T03:00:42;18.20;88.70
70762;DHT22;58360;0.000;0.000;2023-07-13T03:03:08;18.30;88.70
70762;DHT22;58360;0.000;0.000;2023-07-13T03:05:34;18.20;89.20
70762;DHT22;58360;0.000;0.000;2023-07-13T03:07:59;18.10;90.00
70762;DHT22;58360;0.000;0.000;2023-07-13T03:10:25;18.20;90.00
70762;DHT22;58360;0.000;0.000;2023-07-13T03:12:51;18.20;89.30
70762;DHT22;58360;0.000;0.000;2023-07-13T03:15:17;18.10;90.30
70762;DHT22;58360;0.000;0.000;2023-07-13T03:17:42;18.30;89.80
70762;DHT22;58360;0.000;0.000;2023-07-13T03:20:08;18.30;89.40
70762;DHT22;58360;0.000;0.000;2023-07-13T03:22:34;18.40;89.70
70762;DHT22;58360;0.000;0.000;2023-07-13T03:25:00;18.20;90.00
70762;DHT22;58360;0.000;0.000;2023-07-13T03:27:26;18.10;90.10
70762;DHT22;58360;0.000;0.000;2023-07-13T03:29:51;18.10;90.40
70762;DHT22;58360;0.000;0.000;2023-07-13T03:32:17;18.10;90.70
70762;DHT22;58360;0.000;0.000;2023-07-13T03:34:43;18.00;90.80
70762;DHT22;58360;0.000;0.000;2023-07-13T03:37:09;18.30;89.90
70762;DHT22;58360;0.000;0.000;2023-07-13T03:39:34;18.30;90.00
70762;DHT22;58360;0.000;0.000;2023-07-13T03:42:00;18.40;90.00
70762;DHT22;58360;0.000;0.000;2023-07-13T03:44:26;18.40;89.60
70762;DHT22;58360;0.000;0.000;2023-07-13T03:46:52;18.50;89.40
70762;DHT22;58360;0.000;0.000;2023-07-13T03:49:18;18.60;89.00
70762;DHT22;58360;0.000;0.000;2023-07-13T03:51:43;18.60;89.00
70762;DHT22;58360;0.000;0.000;2023-07-13T03:54:09;18.50;89.50
70762;DHT22;58360;0.000;0.000;2023-07-13T03:56:35;18.50;90.00
70762;DHT22;58360;0.000;0.000;2023-07-13T03:59:01;18.50;89.40
70762;DHT22;58360;0.000;0.000;2023-07-13T04:01:28;18.60;89.00
70762;DHT22;58360;0.000;0.000;2023-07-13T04:03:53;18.60;88.80
70762;DHT22;58360;0.000;0.000;2023-07-13T04:06:25;18.50;90.00
70762;DHT22;58360;0.000;0.000;2023-07-13T04:08:54;18.40;89.90
70762;DHT22;58360;0.000;0.000;2023-07-13T04:11:21;18.30;90.50
70762;DHT22;58360;0.000;0.000;2023-07-13T04:13:47;18.30;90.40
70762;DHT22;58360;0.000;0.000;2023-07-13T04:16:14;18.20;91.00
70762;DHT22;58360;0.000;0.000;2023-07-13T04:18:41;18.20;90.60
70762;DHT22;58360;0.000;0.000;2023-07-13T04:31:28;18.20;91.00
70762;DHT22;58360;0.000;0.000;2023-07-13T04:36:28;18.10;91.30
70762;DHT22;58360;0.000;0.000;2023-07-13T04:38:54;18.10;91.40
70762;DHT22;58360;0.000;0.000;2023-07-13T04:41:21;18.10;91.70
70762;DHT22;58360;0.000;0.000;2023-07-13T04:43:47;18.10;91.00
70762;DHT22;58360;0.000;0.000;2023-07-13T04:48:49;18.20;90.80
70762;DHT22;58360;0.000;0.000;2023-07-13T04:51:16;18.20;91.20
70762;DHT22;58360;0.000;0.000;2023-07-13T04:53:42;18.00;91.50
70762;DHT22;58360;0.000;0.000;2023-07-13T04:58:44;18.00;91.60
70762;DHT22;58360;0.000;0.000;2023-07-13T05:01:10;18.20;91.90
70762;DHT22;58360;0.000;0.000;2023-07-13T05:03:36;18.20;91.30
70762;DHT22;58360;0.000;0.000;2023-07-13T05:06:06;18.30;91.00
70762;DHT22;58360;0.000;0.000;2023-07-13T05:08:33;18.30;91.40
70762;DHT22;58360;0.000;0.000;2023-07-13T05:11:03;18.20;91.90
70762;DHT22;58360;0.000;0.000;2023-07-13T05:13:29;18.30;91.20
70762;DHT22;58360;0.000;0.000;2023-07-13T05:16:00;18.40;91.00
70762;DHT22;58360;0.000;0.000;2023-07-13T05:18:27;18.40;91.40
70762;DHT22;58360;0.000;0.000;2023-07-13T05:21:07;18.30;92.10
70762;DHT22;58360;0.000;0.000;2023-07-13T05:23:34;18.40;91.30
70762;DHT22;58360;0.000;0.000;2023-07-13T05:26:00;18.60;90.90
70762;DHT22;58360;0.000;0.000;2023-07-13T05:28:27;18.50;91.70
70762;DHT22;58360;0.000;0.000;2023-07-13T05:30:53;18.60;90.90
70762;DHT22;58360;0.000;0.000;2023-07-13T05:33:19;18.70;90.60
70762;DHT22;58360;0.000;0.000;2023-07-13T05:35:46;18.50;90.80
70762;DHT22;58360;0.000;0.000;2023-07-13T05:38:11;18.40;91.30
70762;DHT22;58360;0.000;0.000;2023-07-13T05:40:37;18.40;91.30
70762;DHT22;58360;0.000;0.000;2023-07-13T05:43:03;18.40;91.40
70762;DHT22;58360;0.000;0.000;2023-07-13T05:45:29;18.30;91.60
70762;DHT22;58360;0.000;0.000;2023-07-13T05:47:54;18.50;91.50
70762;DHT22;58360;0.000;0.000;2023-07-13T05:50:20;18.40;91.50
70762;DHT22;58360;0.000;0.000;2023-07-13T05:52:46;18.50;91.30
70762;DHT22;58360;0.000;0.000;2023-07-13T05:55:12;18.60;91.10
70762;DHT22;58360;0.000;0.000;2023-07-13T05:57:38;18.60;91.00
70762;DHT22;58360;0.000;0.000;2023-07-13T06:00:04;18.60;90.90
70762;DHT22;58360;0.000;0.000;2023-07-13T06:02:30;18.50;91.40
70762;DHT22;58360;0.000;0.000;2023-07-13T06:04:56;18.40;91.30
70762;DHT22;58360;0.000;0.000;2023-07-13T06:07:21;18.50;91.30
70762;DHT22;58360;0.000;0.000;2023-07-13T06:09:47;18.50;91.40
70762;DHT22;58360;0.000;0.000;2023-07-13T06:12:13;18.40;92.00
70762;DHT22;58360;0.000;0.000;2023-07-13T06:14:38;18.50;91.80
70762;DHT22;58360;0.000;0.000;2023-07-13T06:17:04;18.60;91.40
70762;DHT22;58360;0.000;0.000;2023-07-13T06:19:30;18.60;91.30
70762;DHT22;58360;0.000;0.000;2023-07-13T06:21:56;18.80;91.00
70762;DHT22;58360;0.000;0.000;2023-07-13T06:24:24;18.90;91.10
70762;DHT22;58360;0.000;0.000;2023-07-13T06:26:49;18.90;91.00
70762;DHT22;58360;0.000;0.000;2023-07-13T06:29:15;19.00;90.60
70762;DHT22;58360;0.000;0.000;2023-07-13T06:31:41;19.00;90.50
70762;DHT22;58360;0.000;0.000;2023-07-13T06:34:06;18.90;91.40
70762;DHT22;58360;0.000;0.000;2023-07-13T06:36:32;19.00;90.90
70762;DHT22;58360;0.000;0.000;2023-07-13T06:38:58;19.00;91.00
70762;DHT22;58360;0.000;0.000;2023-07-13T06:41:23;19.10;90.70
70762;DHT22;58360;0.000;0.000;2023-07-13T06:43:53;19.20;90.70
70762;DHT22;58360;0.000;0.000;2023-07-13T06:46:23;19.20;90.40
70762;DHT22;58360;0.000;0.000;2023-07-13T06:48:49;19.10;90.90
70762;DHT22;58360;0.000;0.000;2023-07-13T06:51:15;19.20;90.50
70762;DHT22;58360;0.000;0.000;2023-07-13T06:53:41;19.30;90.50
70762;DHT22;58360;0.000;0.000;2023-07-13T06:56:09;19.40;90.40
70762;DHT22;58360;0.000;0.000;2023-07-13T06:58:35;19.40;90.40
70762;DHT22;58360;0.000;0.000;2023-07-13T07:01:01;19.60;90.60
70762;DHT22;58360;0.000;0.000;2023-07-13T07:03:27;19.50;90.00
70762;DHT22;58360;0.000;0.000;2023-07-13T07:05:52;19.50;90.10
70762;DHT22;58360;0.000;0.000;2023-07-13T07:08:18;19.50;90.00
70762;DHT22;58360;0.000;0.000;2023-07-13T07:10:44;19.60;90.50
70762;DHT22;58360;0.000;0.000;2023-07-13T07:13:10;19.80;89.30
70762;DHT22;58360;0.000;0.000;2023-07-13T07:15:36;19.80;89.50
70762;DHT22;58360;0.000;0.000;2023-07-13T07:18:02;20.10;89.50
70762;DHT22;58360;0.000;0.000;2023-07-13T07:20:28;20.30;88.00
70762;DHT22;58360;0.000;0.000;2023-07-13T07:22:53;20.60;87.60
70762;DHT22;58360;0.000;0.000;2023-07-13T07:25:19;20.90;87.50
70762;DHT22;58360;0.000;0.000;2023-07-13T07:27:45;21.20;84.90
70762;DHT22;58360;0.000;0.000;2023-07-13T07:30:11;21.30;84.20
70762;DHT22;58360;0.000;0.000;2023-07-13T07:32:40;21.20;85.50
70762;DHT22;58360;0.000;0.000;2023-07-13T07:35:07;21.60;88.00
70762;DHT22;58360;0.000;0.000;2023-07-13T07:37:32;22.40;82.60
70762;DHT22;58360;0.000;0.000;2023-07-13T07:39:58;22.70;80.00
70762;DHT22;58360;0.000;0.000;2023-07-13T07:42:24;22.90;79.00
70762;DHT22;58360;0.000;0.000;2023-07-13T07:47:26;23.40;77.90
70762;DHT22;58360;0.000;0.000;2023-07-13T07:49:52;24.30;80.90
70762;DHT22;58360;0.000;0.000;2023-07-13T07:52:18;25.50;74.20
70762;DHT22;58360;0.000;0.000;2023-07-13T07:54:44;26.10;71.70
70762;DHT22;58360;0.000;0.000;2023-07-13T07:57:10;26.30;71.40
70762;DHT22;58360;0.000;0.000;2023-07-13T07:59:36;26.90;67.20
70762;DHT22;58360;0.000;0.000;2023-07-13T08:02:02;26.60;66.70
70762;DHT22;58360;0.000;0.000;2023-07-13T08:04:28;25.50;68.20
70762;DHT22;58360;0.000;0.000;2023-07-13T08:06:54;24.80;71.40
70762;DHT22;58360;0.000;0.000;2023-07-13T08:09:21;24.60;71.40
70762;DHT22;58360;0.000;0.000;2023-07-13T08:11:47;24.70;70.10
70762;DHT22;58360;0.000;0.000;2023-07-13T08:14:13;24.90;70.60
70762;DHT22;58360;0.000;0.000;2023-07-13T08:16:39;25.10;69.40
70762;DHT22;58360;0.000;0.000;2023-07-13T08:19:05;25.20;70.90
70762;DHT22;58360;0.000;0.000;2023-07-13T08:21:31;26.00;70.40
70762;DHT22;58360;0.000;0.000;2023-07-13T08:23:57;25.70;67.60
70762;DHT22;58360;0.000;0.000;2023-07-13T08:26:23;25.50;71.00
70762;DHT22;58360;0.000;0.000;2023-07-13T08:28:48;26.10;68.70
70762;DHT22;58360;0.000;0.000;2023-07-13T08:31:14;26.90;66.10
70762;DHT22;58360;0.000;0.000;2023-07-13T08:33:40;27.30;64.30
70762;DHT22;58360;0.000;0.000;2023-07-13T08:36:06;27.50;64.80
70762;DHT22;58360;0.000;0.000;2023-07-13T08:38:32;26.70;63.70
70762;DHT22;58360;0.000;0.000;2023-07-13T08:40:58;25.90;65.20
70762;DHT22;58360;0.000;0.000;2023-07-13T08:43:34;26.00;69.10
70762;DHT22;58360;0.000;0.000;2023-07-13T08:46:10;27.30;63.60
70762;DHT22;58360;0.000;0.000;2023-07-13T08:48:56;28.50;63.20
70762;DHT22;58360;0.000;0.000;2023-07-13T08:54:04;30.30;55.80
70762;DHT22;58360;0.000;0.000;2023-07-13T08:56:32;30.50;56.30
70762;DHT22;58360;0.000;0.000;2023-07-13T08:59:11;30.20;56.50
70762;DHT22;58360;0.000;0.000;2023-07-13T09:04:25;29.30;55.50
70762;DHT22;58360;0.000;0.000;2023-07-13T09:09:23;29.30;57.40
70762;DHT22;58360;0.000;0.000;2023-07-13T09:12:02;29.70;54.80
70762;DHT22;58360;0.000;0.000;2023-07-13T09:14:50;29.20;56.70
70762;DHT22;58360;0.000;0.000;2023-07-13T09:43:10;25.60;75.00
70762;DHT22;58360;0.000;0.000;2023-07-13T09:45:38;29.10;60.80
70762;DHT22;58360;0.000;0.000;2023-07-13T09:48:13;31.60;56.60
70762;DHT22;58360;0.000;0.000;2023-07-13T09:50:39;32.60;51.00
70762;DHT22;58360;0.000;0.000;2023-07-13T09:53:12;33.00;49.70
70762;DHT22;58360;0.000;0.000;2023-07-13T09:55:39;33.10;49.70
70762;DHT22;58360;0.000;0.000;2023-07-13T10:00:42;31.50;50.70
70762;DHT22;58360;0.000;0.000;2023-07-13T10:03:24;31.90;53.50
70762;DHT22;58360;0.000;0.000;2023-07-13T10:05:51;33.40;50.10
70762;DHT22;58360;0.000;0.000;2023-07-13T10:08:18;33.30;46.70
70762;DHT22;58360;0.000;0.000;2023-07-13T10:10:44;34.10;45.60
70762;DHT22;58360;0.000;0.000;2023-07-13T10:13:27;33.40;45.30
70762;DHT22;58360;0.000;0.000;2023-07-13T10:15:54;32.40;46.60
70762;DHT22;58360;0.000;0.000;2023-07-13T10:18:22;31.50;51.20
70762;DHT22;58360;0.000;0.000;2023-07-13T10:20:54;31.90;47.60
70762;DHT22;58360;0.000;0.000;2023-07-13T10:23:22;31.20;48.30
70762;DHT22;58360;0.000;0.000;2023-07-13T10:25:50;30.80;49.30
70762;DHT22;58360;0.000;0.000;2023-07-13T10:30:55;30.30;51.90
70762;DHT22;58360;0.000;0.000;2023-07-13T10:33:22;29.80;49.40
70762;DHT22;58360;0.000;0.000;2023-07-13T10:35:49;29.40;50.70
70762;DHT22;58360;0.000;0.000;2023-07-13T10:38:20;30.30;49.80
70762;DHT22;58360;0.000;0.000;2023-07-13T10:41:08;31.80;49.10
70762;DHT22;58360;0.000;0.000;2023-07-13T10:43:41;31.20;46.50
70762;DHT22;58360;0.000;0.000;2023-07-13T10:46:13;30.40;49.70
70762;DHT22;58360;0.000;0.000;2023-07-13T10:48:40;30.40;51.60
70762;DHT22;58360;0.000;0.000;2023-07-13T10:51:10;30.40;48.50
70762;DHT22;58360;0.000;0.000;2023-07-13T10:53:38;29.70;50.90
70762;DHT22;58360;0.000;0.000;2023-07-13T10:56:22;29.50;51.80
70762;DHT22;58360;0.000;0.000;2023-07-13T10:59:13;29.50;50.20
70762;DHT22;58360;0.000;0.000;2023-07-13T11:04:27;27.90;55.10
70762;DHT22;58360;0.000;0.000;2023-07-13T11:06:59;27.90;56.10
70762;DHT22;58360;0.000;0.000;2023-07-13T11:09:32;28.90;52.60
70762;DHT22;58360;0.000;0.000;2023-07-13T11:12:10;29.20;54.50
70762;DHT22;58360;0.000;0.000;2023-07-13T11:23:15;28.20;50.50
70762;DHT22;58360;0.000;0.000;2023-07-13T11:25:43;28.00;52.80
70762;DHT22;58360;0.000;0.000;2023-07-13T11:30:43;28.20;51.70
70762;DHT22;58360;0.000;0.000;2023-07-13T12:22:21;21.20;92.20
70762;DHT22;58360;0.000;0.000;2023-07-13T12:24:57;21.10;92.70
70762;DHT22;58360;0.000;0.000;2023-07-13T12:35:17;21.40;91.70
70762;DHT22;58360;0.000;0.000;2023-07-13T12:37:46;21.30;91.20
70762;DHT22;58360;0.000;0.000;2023-07-13T12:40:32;21.40;90.20
70762;DHT22;58360;0.000;0.000;2023-07-13T12:42:59;21.30;91.50
70762;DHT22;58360;0.000;0.000;2023-07-13T12:45:30;21.40;92.00
70762;DHT22;58360;0.000;0.000;2023-07-13T12:48:14;21.30;90.80
70762;DHT22;58360;0.000;0.000;2023-07-13T12:50:46;21.40;91.40
70762;DHT22;58360;0.000;0.000;2023-07-13T12:53:21;21.30;93.00
70762;DHT22;58360;0.000;0.000;2023-07-13T12:55:50;21.30;92.20
70762;DHT22;58360;0.000;0.000;2023-07-13T12:58:35;21.20;93.20
70762;DHT22;58360;0.000;0.000;2023-07-13T13:01:03;21.30;92.60
70762;DHT22;58360;0.000;0.000;2023-07-13T13:03:38;21.40;92.40
70762;DHT22;58360;0.000;0.000;2023-07-13T13:09:00;21.90;92.60
70762;DHT22;58360;0.000;0.000;2023-07-13T13:11:28;22.50;91.50
70762;DHT22;58360;0.000;0.000;2023-07-13T13:13:54;23.10;90.30
70762;DHT22;58360;0.000;0.000;2023-07-13T13:26:41;25.40;84.30
70762;DHT22;58360;0.000;0.000;2023-07-13T13:29:19;26.70;78.50
70762;DHT22;58360;0.000;0.000;2023-07-13T13:31:45;27.00;75.60
70762;DHT22;58360;0.000;0.000;2023-07-13T13:39:31;26.90;72.40
70762;DHT22;58360;0.000;0.000;2023-07-13T13:44:33;27.70;66.70
70762;DHT22;58360;0.000;0.000;2023-07-13T13:46:59;27.70;65.40
70762;DHT22;58360;0.000;0.000;2023-07-13T13:49:27;27.60;64.70
70762;DHT22;58360;0.000;0.000;2023-07-13T13:51:54;27.20;70.40
70762;DHT22;58360;0.000;0.000;2023-07-13T13:54:21;27.10;66.00
70762;DHT22;58360;0.000;0.000;2023-07-13T13:56:50;27.00;67.10
70762;DHT22;58360;0.000;0.000;2023-07-13T14:04:26;26.60;71.10
70762;DHT22;58360;0.000;0.000;2023-07-13T14:06:52;26.80;72.90
70762;DHT22;58360;0.000;0.000;2023-07-13T14:09:18;27.20;72.60
70762;DHT22;58360;0.000;0.000;2023-07-13T14:11:46;27.70;65.00
70762;DHT22;58360;0.000;0.000;2023-07-13T14:14:18;28.10;63.80
70762;DHT22;58360;0.000;0.000;2023-07-13T14:16:44;28.30;68.70
70762;DHT22;58360;0.000;0.000;2023-07-13T14:19:12;28.20;65.70
70762;DHT22;58360;0.000;0.000;2023-07-13T14:21:39;27.80;66.30
70762;DHT22;58360;0.000;0.000;2023-07-13T14:24:05;27.50;64.10
70762;DHT22;58360;0.000;0.000;2023-07-13T14:26:35;27.30;65.30
70762;DHT22;58360;0.000;0.000;2023-07-13T14:29:02;27.00;63.20
70762;DHT22;58360;0.000;0.000;2023-07-13T14:31:28;26.70;66.20
70762;DHT22;58360;0.000;0.000;2023-07-13T14:33:56;26.50;68.20
70762;DHT22;58360;0.000;0.000;2023-07-13T14:46:45;26.10;67.00
70762;DHT22;58360;0.000;0.000;2023-07-13T14:51:46;26.90;64.60
70762;DHT22;58360;0.000;0.000;2023-07-13T14:54:12;27.50;62.30
70762;DHT22;58360;0.000;0.000;2023-07-13T14:56:38;27.60;63.70
70762;DHT22;58360;0.000;0.000;2023-07-13T14:59:03;27.90;63.80
70762;DHT22;58360;0.000;0.000;2023-07-13T15:01:30;28.00;62.40
70762;DHT22;58360;0.000;0.000;2023-07-13T15:03:57;28.00;60.50
70762;DHT22;58360;0.000;0.000;2023-07-13T15:06:23;28.00;64.90
70762;DHT22;58360;0.000;0.000;2023-07-13T15:08:49;27.80;61.40
70762;DHT22;58360;0.000;0.000;2023-07-13T15:11:16;27.50;60.70
70762;DHT22;58360;0.000;0.000;2023-07-13T15:13:42;27.00;64.80
70762;DHT22;58360;0.000;0.000;2023-07-13T15:16:24;26.80;62.00
70762;DHT22;58360;0.000;0.000;2023-07-13T15:21:25;27.00;61.90
70762;DHT22;58360;0.000;0.000;2023-07-13T15:23:53;26.90;63.80
70762;DHT22;58360;0.000;0.000;2023-07-13T15:26:19;27.10;63.40
70762;DHT22;58360;0.000;0.000;2023-07-13T15:28:46;27.20;63.00
70762;DHT22;58360;0.000;0.000;2023-07-13T15:31:24;27.10;63.00
70762;DHT22;58360;0.000;0.000;2023-07-13T15:33:51;27.30;65.40
70762;DHT22;58360;0.000;0.000;2023-07-13T15:36:21;27.50;60.60
70762;DHT22;58360;0.000;0.000;2023-07-13T15:38:48;27.50;63.00
70762;DHT22;58360;0.000;0.000;2023-07-13T15:41:17;27.60;63.40
70762;DHT22;58360;0.000;0.000;2023-07-13T15:43:43;27.50;59.80
70762;DHT22;58360;0.000;0.000;2023-07-13T15:46:09;27.10;60.60
70762;DHT22;58360;0.000;0.000;2023-07-13T15:48:35;26.90;63.80
70762;DHT22;58360;0.000;0.000;2023-07-13T15:51:03;26.60;64.20
70762;DHT22;58360;0.000;0.000;2023-07-13T15:53:32;26.50;61.10
70762;DHT22;58360;0.000;0.000;2023-07-13T15:56:01;26.50;63.70
70762;DHT22;58360;0.000;0.000;2023-07-13T15:58:27;26.50;64.70
70762;DHT22;58360;0.000;0.000;2023-07-13T16:00:54;26.40;61.40
70762;DHT22;58360;0.000;0.000;2023-07-13T16:03:20;26.40;61.10
70762;DHT22;58360;0.000;0.000;2023-07-13T16:05:47;26.30;63.10
70762;DHT22;58360;0.000;0.000;2023-07-13T16:11:01;26.20;63.00
70762;DHT22;58360;0.000;0.000;2023-07-13T16:13:28;26.00;63.00
70762;DHT22;58360;0.000;0.000;2023-07-13T16:15:54;26.00;63.60
70762;DHT22;58360;0.000;0.000;2023-07-13T16:18:21;26.10;64.70
70762;DHT22;58360;0.000;0.000;2023-07-13T16:20:48;26.00;65.30
70762;DHT22;58360;0.000;0.000;2023-07-13T16:23:15;26.10;63.20
70762;DHT22;58360;0.000;0.000;2023-07-13T16:25:41;26.00;66.20
70762;DHT22;58360;0.000;0.000;2023-07-13T16:28:09;26.10;64.90
70762;DHT22;58360;0.000;0.000;2023-07-13T16:30:36;26.00;65.30
70762;DHT22;58360;0.000;0.000;2023-07-13T16:33:03;25.90;65.30
70762;DHT22;58360;0.000;0.000;2023-07-13T16:35:40;26.00;64.40
70762;DHT22;58360;0.000;0.000;2023-07-13T16:38:21;25.80;65.20
70762;DHT22;58360;0.000;0.000;2023-07-13T16:40:48;25.80;65.90
70762;DHT22;58360;0.000;0.000;2023-07-13T16:43:18;25.60;66.60
70762;DHT22;58360;0.000;0.000;2023-07-13T16:45:48;25.50;66.90
70762;DHT22;58360;0.000;0.000;2023-07-13T16:48:18;25.40;67.30
70762;DHT22;58360;0.000;0.000;2023-07-13T16:50:45;25.40;66.30
70762;DHT22;58360;0.000;0.000;2023-07-13T16:53:21;25.30;66.40
70762;DHT22;58360;0.000;0.000;2023-07-13T16:55:48;25.30;66.90
70762;DHT22;58360;0.000;0.000;2023-07-13T16:58:14;25.40;67.40
70762;DHT22;58360;0.000;0.000;2023-07-13T17:00:40;25.50;67.80
70762;DHT22;58360;0.000;0.000;2023-07-13T17:03:08;25.50;68.40
70762;DHT22;58360;0.000;0.000;2023-07-13T17:05:43;25.60;70.30
70762;DHT22;58360;0.000;0.000;2023-07-13T17:08:15;25.50;68.70
70762;DHT22;58360;0.000;0.000;2023-07-13T17:10:45;25.60;68.40
70762;DHT22;58360;0.000;0.000;2023-07-13T17:13:12;25.50;68.50
70762;DHT22;58360;0.000;0.000;2023-07-13T17:15:38;25.70;67.70
70762;DHT22;58360;0.000;0.000;2023-07-13T17:18:05;25.80;66.50
70762;DHT22;58360;0.000;0.000;2023-07-13T17:20:38;25.90;66.70
70762;DHT22;58360;0.000;0.000;2023-07-13T17:23:19;25.70;68.10
70762;DHT22;58360;0.000;0.000;2023-07-13T17:25:46;25.60;69.50
70762;DHT22;58360;0.000;0.000;2023-07-13T17:28:12;25.70;68.60
70762;DHT22;58360;0.000;0.000;2023-07-13T17:30:40;25.60;70.10
70762;DHT22;58360;0.000;0.000;2023-07-13T17:33:13;25.70;67.80
70762;DHT22;58360;0.000;0.000;2023-07-13T17:35:44;25.80;68.40
70762;DHT22;58360;0.000;0.000;2023-07-13T17:38:10;25.60;68.50
70762;DHT22;58360;0.000;0.000;2023-07-13T17:40:36;25.50;67.90
70762;DHT22;58360;0.000;0.000;2023-07-13T17:43:03;25.40;68.10
70762;DHT22;58360;0.000;0.000;2023-07-13T17:45:31;25.50;68.50
70762;DHT22;58360;0.000;0.000;2023-07-13T17:47:59;25.40;69.50
70762;DHT22;58360;0.000;0.000;2023-07-13T17:50:32;25.30;69.00
70762;DHT22;58360;0.000;0.000;2023-07-13T17:55:46;24.80;71.20
70762;DHT22;58360;0.000;0.000;2023-07-13T17:58:17;24.80;69.90
70762;DHT22;58360;0.000;0.000;2023-07-13T18:00:44;24.80;69.90
70762;DHT22;58360;0.000;0.000;2023-07-13T18:47:21;23.60;74.90
70762;DHT22;58360;0.000;0.000;2023-07-13T18:52:23;23.50;75.20
70762;DHT22;58360;0.000;0.000;2023-07-13T19:07:47;23.30;76.90
70762;DHT22;58360;0.000;0.000;2023-07-13T19:10:19;23.20;77.30
70762;DHT22;58360;0.000;0.000;2023-07-13T19:12:47;23.10;77.40
70762;DHT22;58360;0.000;0.000;2023-07-13T19:15:20;23.00;78.80
70762;DHT22;58360;0.000;0.000;2023-07-13T19:17:51;23.00;79.00
70762;DHT22;58360;0.000;0.000;2023-07-13T19:20:18;22.90;80.10
70762;DHT22;58360;0.000;0.000;2023-07-13T19:23:21;22.90;79.80
70762;DHT22;58360;0.000;0.000;2023-07-13T19:25:49;22.80;80.90
70762;DHT22;58360;0.000;0.000;2023-07-13T19:38:39;22.70;81.50
70762;DHT22;58360;0.000;0.000;2023-07-13T19:51:26;22.50;82.00
70762;DHT22;58360;0.000;0.000;2023-07-13T19:53:54;22.60;84.20
70762;DHT22;58360;0.000;0.000;2023-07-13T19:56:21;22.40;84.40
70762;DHT22;58360;0.000;0.000;2023-07-13T19:58:47;22.40;85.80
70762;DHT22;58360;0.000;0.000;2023-07-13T20:03:49;22.20;85.90
70762;DHT22;58360;0.000;0.000;2023-07-13T20:06:31;22.40;84.40
70762;DHT22;58360;0.000;0.000;2023-07-13T20:11:37;22.10;84.00
70762;DHT22;58360;0.000;0.000;2023-07-13T20:14:16;22.20;84.70
70762;DHT22;58360;0.000;0.000;2023-07-13T20:16:42;22.20;83.70